KHOU/HOU METAR and TAF weather

Enter ICAO airport designator
Station Type Date Time Source
KHOU METAR 2020/04/02 01:53 UTC NOAA

KHOU 020153Z 14006KT 10SM FEW035 BKN250 18/12 A2997 RMK AO2 SLP152 T01830117


Station Type Date Time Source
KHOU Decoded METAR 2020/04/02 01:53 UTC NOAA

HOUSTON HOBBY AIRPORT, TX, United States (KHOU) 29-38N 095-17W 36M
Apr 01, 2020 - 09:53 PM EDT / 2020.04.02 0153 UTC
Wind: from the SE (140 degrees) at 7 MPH (6 KT):0
Visibility: 10 mile(s):0
Sky conditions: mostly cloudy
Temperature: 64.9 F (18.3 C)
Dew Point: 53.1 F (11.7 C)
Relative Humidity: 65%
Pressure (altimeter): 29.97 in. Hg (1014 hPa)
ob: KHOU 020153Z 14006KT 10SM FEW035 BKN250 18/12 A2997 RMK AO2 SLP152 T01830117
cycle: 2

Station Type Date Time Source
KHOU TAF 2020/04/01 21:58 UTC NOAA

TAF
AMD KHOU 012058Z 0121/0218 10009G13KT P6SM FEW045 SCT250
TEMPO 0123/0203 12008KT FEW030 SCT250
FM020300 13004KT P6SM SCT025 BKN250
TEMPO 0214/0216 BKN028 OVC250
FM021600 14011KT P6SM BKN035 OVC250

Example: see airport list